sensor_id;sensor_type;location;lat;lon;timestamp;P1;durP1;ratioP1;P2;durP2;ratioP2
20739;SDS011;10530;49.968;19.844;2024-02-15T00:03:13;22.93;;;7.97;;
20739;SDS011;10530;49.968;19.844;2024-02-15T00:08:17;19.80;;;7.28;;
20739;SDS011;10530;49.968;19.844;2024-02-15T00:13:21;20.17;;;7.30;;
20739;SDS011;10530;49.968;19.844;2024-02-15T00:18:24;22.27;;;7.10;;
20739;SDS011;10530;49.968;19.844;2024-02-15T00:23:28;18.13;;;6.70;;
20739;SDS011;10530;49.968;19.844;2024-02-15T00:28:31;14.77;;;5.60;;
20739;SDS011;10530;49.968;19.844;2024-02-15T00:33:36;19.35;;;6.43;;
20739;SDS011;10530;49.968;19.844;2024-02-15T00:38:40;17.65;;;6.82;;
20739;SDS011;10530;49.968;19.844;2024-02-15T00:43:45;17.53;;;6.50;;
20739;SDS011;10530;49.968;19.844;2024-02-15T00:48:48;16.73;;;5.95;;
20739;SDS011;10530;49.968;19.844;2024-02-15T00:53:52;13.37;;;6.70;;
20739;SDS011;10530;49.968;19.844;2024-02-15T00:58:55;19.20;;;8.77;;
20739;SDS011;10530;49.968;19.844;2024-02-15T01:03:58;26.20;;;10.85;;
20739;SDS011;10530;49.968;19.844;2024-02-15T01:09:01;32.03;;;11.80;;
20739;SDS011;10530;49.968;19.844;2024-02-15T01:14:05;34.95;;;13.05;;
20739;SDS011;10530;49.968;19.844;2024-02-15T01:19:11;34.43;;;13.27;;
20739;SDS011;10530;49.968;19.844;2024-02-15T01:24:14;33.88;;;13.23;;
20739;SDS011;10530;49.968;19.844;2024-02-15T01:29:18;36.22;;;13.27;;
20739;SDS011;10530;49.968;19.844;2024-02-15T01:34:21;34.63;;;12.77;;
20739;SDS011;10530;49.968;19.844;2024-02-15T01:39:25;27.70;;;9.88;;
20739;SDS011;10530;49.968;19.844;2024-02-15T01:44:28;26.80;;;10.13;;
20739;SDS011;10530;49.968;19.844;2024-02-15T01:49:31;31.95;;;11.65;;
20739;SDS011;10530;49.968;19.844;2024-02-15T01:54:34;32.25;;;11.32;;
20739;SDS011;10530;49.968;19.844;2024-02-15T01:59:41;31.90;;;11.00;;
20739;SDS011;10530;49.968;19.844;2024-02-15T02:04:45;32.25;;;12.52;;
20739;SDS011;10530;49.968;19.844;2024-02-15T02:09:48;28.20;;;11.00;;
20739;SDS011;10530;49.968;19.844;2024-02-15T02:14:51;26.58;;;10.23;;
20739;SDS011;10530;49.968;19.844;2024-02-15T02:19:54;33.17;;;11.40;;
20739;SDS011;10530;49.968;19.844;2024-02-15T02:30:14;25.42;;;9.68;;
20739;SDS011;10530;49.968;19.844;2024-02-15T02:35:19;23.90;;;8.43;;
20739;SDS011;10530;49.968;19.844;2024-02-15T02:40:22;23.08;;;8.77;;
20739;SDS011;10530;49.968;19.844;2024-02-15T02:45:25;20.80;;;8.00;;
20739;SDS011;10530;49.968;19.844;2024-02-15T02:50:28;22.40;;;9.10;;
20739;SDS011;10530;49.968;19.844;2024-02-15T02:55:31;25.15;;;8.40;;
20739;SDS011;10530;49.968;19.844;2024-02-15T03:00:34;16.67;;;7.10;;
20739;SDS011;10530;49.968;19.844;2024-02-15T03:05:39;25.65;;;10.15;;
20739;SDS011;10530;49.968;19.844;2024-02-15T03:10:42;21.80;;;8.23;;
20739;SDS011;10530;49.968;19.844;2024-02-15T03:15:45;15.90;;;5.53;;
20739;SDS011;10530;49.968;19.844;2024-02-15T03:20:51;12.15;;;5.15;;
20739;SDS011;10530;49.968;19.844;2024-02-15T03:25:54;12.03;;;5.10;;
20739;SDS011;10530;49.968;19.844;2024-02-15T03:30:57;10.73;;;4.40;;
20739;SDS011;10530;49.968;19.844;2024-02-15T03:36:02;12.18;;;4.75;;
20739;SDS011;10530;49.968;19.844;2024-02-15T03:41:07;11.50;;;3.97;;
20739;SDS011;10530;49.968;19.844;2024-02-15T03:46:10;11.10;;;3.72;;
20739;SDS011;10530;49.968;19.844;2024-02-15T03:51:18;13.03;;;4.30;;
20739;SDS011;10530;49.968;19.844;2024-02-15T03:56:22;13.20;;;4.35;;
20739;SDS011;10530;49.968;19.844;2024-02-15T04:01:25;9.52;;;3.17;;
20739;SDS011;10530;49.968;19.844;2024-02-15T04:06:29;10.70;;;3.47;;
20739;SDS011;10530;49.968;19.844;2024-02-15T04:11:34;10.23;;;3.58;;
20739;SDS011;10530;49.968;19.844;2024-02-15T04:16:37;9.43;;;3.67;;
20739;SDS011;10530;49.968;19.844;2024-02-15T04:21:40;8.50;;;3.47;;
20739;SDS011;10530;49.968;19.844;2024-02-15T04:26:45;9.40;;;3.38;;
20739;SDS011;10530;49.968;19.844;2024-02-15T04:31:50;8.37;;;3.33;;
20739;SDS011;10530;49.968;19.844;2024-02-15T04:36:53;16.70;;;3.72;;
20739;SDS011;10530;49.968;19.844;2024-02-15T04:41:57;18.80;;;6.77;;
20739;SDS011;10530;49.968;19.844;2024-02-15T04:47:00;14.02;;;5.45;;
20739;SDS011;10530;49.968;19.844;2024-02-15T04:52:06;10.10;;;3.83;;
20739;SDS011;10530;49.968;19.844;2024-02-15T04:57:09;10.57;;;3.60;;
20739;SDS011;10530;49.968;19.844;2024-02-15T05:02:14;12.93;;;4.00;;
20739;SDS011;10530;49.968;19.844;2024-02-15T05:07:17;14.50;;;5.80;;
20739;SDS011;10530;49.968;19.844;2024-02-15T05:12:23;20.48;;;7.43;;
20739;SDS011;10530;49.968;19.844;2024-02-15T05:17:27;20.48;;;7.65;;
20739;SDS011;10530;49.968;19.844;2024-02-15T05:22:32;24.33;;;8.87;;
20739;SDS011;10530;49.968;19.844;2024-02-15T05:27:35;25.75;;;8.98;;
20739;SDS011;10530;49.968;19.844;2024-02-15T05:32:38;22.97;;;9.40;;
20739;SDS011;10530;49.968;19.844;2024-02-15T05:37:46;27.30;;;9.95;;
20739;SDS011;10530;49.968;19.844;2024-02-15T05:42:54;27.33;;;10.27;;
20739;SDS011;10530;49.968;19.844;2024-02-15T05:47:57;23.77;;;8.93;;
20739;SDS011;10530;49.968;19.844;2024-02-15T05:53:01;21.52;;;8.73;;
20739;SDS011;10530;49.968;19.844;2024-02-15T05:58:05;28.40;;;8.93;;
20739;SDS011;10530;49.968;19.844;2024-02-15T06:03:11;20.52;;;8.43;;
20739;SDS011;10530;49.968;19.844;2024-02-15T06:08:14;20.38;;;8.63;;
20739;SDS011;10530;49.968;19.844;2024-02-15T06:13:18;23.73;;;8.90;;
20739;SDS011;10530;49.968;19.844;2024-02-15T06:18:22;23.40;;;9.23;;
20739;SDS011;10530;49.968;19.844;2024-02-15T06:23:27;24.80;;;8.90;;
20739;SDS011;10530;49.968;19.844;2024-02-15T06:28:30;21.42;;;8.15;;
20739;SDS011;10530;49.968;19.844;2024-02-15T06:33:51;24.38;;;8.80;;
20739;SDS011;10530;49.968;19.844;2024-02-15T06:39:14;22.53;;;10.07;;
20739;SDS011;10530;49.968;19.844;2024-02-15T06:44:35;23.20;;;9.25;;
20739;SDS011;10530;49.968;19.844;2024-02-15T06:49:39;22.50;;;9.67;;
20739;SDS011;10530;49.968;19.844;2024-02-15T06:54:43;20.48;;;9.85;;
20739;SDS011;10530;49.968;19.844;2024-02-15T06:59:48;26.38;;;10.23;;
20739;SDS011;10530;49.968;19.844;2024-02-15T07:04:51;29.40;;;11.97;;
20739;SDS011;10530;49.968;19.844;2024-02-15T07:09:54;30.83;;;12.55;;
20739;SDS011;10530;49.968;19.844;2024-02-15T07:14:58;36.00;;;14.17;;
20739;SDS011;10530;49.968;19.844;2024-02-15T07:20:03;32.85;;;14.02;;
20739;SDS011;10530;49.968;19.844;2024-02-15T07:25:07;39.15;;;15.43;;
20739;SDS011;10530;49.968;19.844;2024-02-15T07:30:10;37.10;;;14.67;;
20739;SDS011;10530;49.968;19.844;2024-02-15T07:35:15;33.30;;;13.27;;
20739;SDS011;10530;49.968;19.844;2024-02-15T07:40:19;36.00;;;15.57;;
20739;SDS011;10530;49.968;19.844;2024-02-15T07:45:24;41.42;;;14.68;;
20739;SDS011;10530;49.968;19.844;2024-02-15T07:50:27;31.30;;;13.57;;
20739;SDS011;10530;49.968;19.844;2024-02-15T07:55:31;33.37;;;13.47;;
20739;SDS011;10530;49.968;19.844;2024-02-15T08:00:34;36.15;;;13.05;;
20739;SDS011;10530;49.968;19.844;2024-02-15T08:05:39;28.73;;;10.53;;
20739;SDS011;10530;49.968;19.844;2024-02-15T08:10:42;33.28;;;12.10;;
20739;SDS011;10530;49.968;19.844;2024-02-15T08:15:47;37.10;;;13.07;;
20739;SDS011;10530;49.968;19.844;2024-02-15T08:20:54;34.23;;;12.70;;
20739;SDS011;10530;49.968;19.844;2024-02-15T08:25:58;30.67;;;11.82;;
20739;SDS011;10530;49.968;19.844;2024-02-15T08:31:01;29.63;;;12.23;;
20739;SDS011;10530;49.968;19.844;2024-02-15T08:36:06;30.48;;;11.27;;
20739;SDS011;10530;49.968;19.844;2024-02-15T08:41:11;30.85;;;11.60;;
20739;SDS011;10530;49.968;19.844;2024-02-15T08:46:14;27.80;;;10.60;;
20739;SDS011;10530;49.968;19.844;2024-02-15T08:51:17;19.33;;;10.15;;
20739;SDS011;10530;49.968;19.844;2024-02-15T08:56:27;27.47;;;9.73;;
20739;SDS011;10530;49.968;19.844;2024-02-15T09:01:30;24.67;;;10.48;;
20739;SDS011;10530;49.968;19.844;2024-02-15T09:06:35;26.70;;;10.20;;
20739;SDS011;10530;49.968;19.844;2024-02-15T09:11:38;21.10;;;8.97;;
20739;SDS011;10530;49.968;19.844;2024-02-15T09:16:41;19.38;;;7.72;;
20739;SDS011;10530;49.968;19.844;2024-02-15T09:21:44;15.73;;;6.50;;
20739;SDS011;10530;49.968;19.844;2024-02-15T09:26:47;14.65;;;6.18;;
20739;SDS011;10530;49.968;19.844;2024-02-15T09:31:50;13.93;;;5.47;;
20739;SDS011;10530;49.968;19.844;2024-02-15T09:36:54;11.23;;;4.67;;
20739;SDS011;10530;49.968;19.844;2024-02-15T09:41:58;11.60;;;4.03;;
20739;SDS011;10530;49.968;19.844;2024-02-15T09:47:05;10.47;;;4.80;;
20739;SDS011;10530;49.968;19.844;2024-02-15T09:52:09;10.90;;;4.70;;
20739;SDS011;10530;49.968;19.844;2024-02-15T09:57:18;8.57;;;3.88;;
20739;SDS011;10530;49.968;19.844;2024-02-15T10:02:22;9.03;;;3.17;;
20739;SDS011;10530;49.968;19.844;2024-02-15T10:07:25;7.15;;;2.97;;
20739;SDS011;10530;49.968;19.844;2024-02-15T10:12:37;9.67;;;3.50;;
20739;SDS011;10530;49.968;19.844;2024-02-15T10:17:41;5.72;;;2.30;;
20739;SDS011;10530;49.968;19.844;2024-02-15T10:22:44;4.97;;;1.95;;
20739;SDS011;10530;49.968;19.844;2024-02-15T10:27:47;3.93;;;2.00;;
20739;SDS011;10530;49.968;19.844;2024-02-15T10:32:50;4.88;;;2.03;;
20739;SDS011;10530;49.968;19.844;2024-02-15T10:38:04;5.67;;;2.30;;
20739;SDS011;10530;49.968;19.844;2024-02-15T10:43:10;5.65;;;2.38;;
20739;SDS011;10530;49.968;19.844;2024-02-15T10:48:15;5.07;;;2.42;;
20739;SDS011;10530;49.968;19.844;2024-02-15T10:53:21;5.17;;;1.90;;
20739;SDS011;10530;49.968;19.844;2024-02-15T10:58:30;4.72;;;2.25;;
20739;SDS011;10530;49.968;19.844;2024-02-15T11:03:44;5.00;;;1.90;;
20739;SDS011;10530;49.968;19.844;2024-02-15T11:08:50;5.20;;;2.00;;
20739;SDS011;10530;49.968;19.844;2024-02-15T11:14:28;5.05;;;2.10;;
20739;SDS011;10530;49.968;19.844;2024-02-15T11:24:49;5.50;;;2.40;;
20739;SDS011;10530;49.968;19.844;2024-02-15T11:29:55;5.23;;;2.50;;
20739;SDS011;10530;49.968;19.844;2024-02-15T11:35:05;5.57;;;2.92;;
20739;SDS011;10530;49.968;19.844;2024-02-15T11:40:17;5.22;;;2.83;;
20739;SDS011;10530;49.968;19.844;2024-02-15T11:45:21;6.07;;;2.90;;
20739;SDS011;10530;49.968;19.844;2024-02-15T11:50:27;7.40;;;3.00;;
20739;SDS011;10530;49.968;19.844;2024-02-15T11:55:30;5.87;;;2.70;;
20739;SDS011;10530;49.968;19.844;2024-02-15T12:00:35;6.32;;;3.25;;
20739;SDS011;10530;49.968;19.844;2024-02-15T12:05:57;5.30;;;2.90;;
20739;SDS011;10530;49.968;19.844;2024-02-15T12:11:19;6.23;;;3.10;;
20739;SDS011;10530;49.968;19.844;2024-02-15T12:16:41;5.70;;;2.88;;
20739;SDS011;10530;49.968;19.844;2024-02-15T12:22:03;6.50;;;2.70;;
20739;SDS011;10530;49.968;19.844;2024-02-15T12:27:07;5.43;;;2.97;;
20739;SDS011;10530;49.968;19.844;2024-02-15T12:32:10;5.45;;;2.70;;
20739;SDS011;10530;49.968;19.844;2024-02-15T12:37:13;9.20;;;3.80;;
20739;SDS011;10530;49.968;19.844;2024-02-15T12:42:16;7.15;;;3.70;;
20739;SDS011;10530;49.968;19.844;2024-02-15T12:47:22;8.27;;;3.70;;
20739;SDS011;10530;49.968;19.844;2024-02-15T12:52:36;7.80;;;3.50;;
20739;SDS011;10530;49.968;19.844;2024-02-15T12:57:42;9.25;;;3.60;;
20739;SDS011;10530;49.968;19.844;2024-02-15T13:02:47;6.67;;;3.40;;
20739;SDS011;10530;49.968;19.844;2024-02-15T13:07:55;9.18;;;4.40;;
20739;SDS011;10530;49.968;19.844;2024-02-15T13:12:58;8.10;;;3.80;;
20739;SDS011;10530;49.968;19.844;2024-02-15T13:18:01;7.72;;;3.45;;
20739;SDS011;10530;49.968;19.844;2024-02-15T13:23:09;7.35;;;3.90;;
20739;SDS011;10530;49.968;19.844;2024-02-15T13:28:24;6.10;;;3.30;;
20739;SDS011;10530;49.968;19.844;2024-02-15T13:33:27;7.00;;;3.88;;
20739;SDS011;10530;49.968;19.844;2024-02-15T13:38:34;8.67;;;3.70;;
20739;SDS011;10530;49.968;19.844;2024-02-15T13:43:38;7.72;;;3.70;;
20739;SDS011;10530;49.968;19.844;2024-02-15T13:48:44;6.70;;;3.70;;
20739;SDS011;10530;49.968;19.844;2024-02-15T13:53:47;9.87;;;3.67;;
20739;SDS011;10530;49.968;19.844;2024-02-15T13:58:50;6.63;;;3.47;;
20739;SDS011;10530;49.968;19.844;2024-02-15T14:03:53;7.83;;;3.40;;
20739;SDS011;10530;49.968;19.844;2024-02-15T14:08:57;6.13;;;3.13;;
20739;SDS011;10530;49.968;19.844;2024-02-15T14:14:00;7.25;;;3.22;;
20739;SDS011;10530;49.968;19.844;2024-02-15T14:19:03;9.60;;;3.37;;
20739;SDS011;10530;49.968;19.844;2024-02-15T14:24:08;8.10;;;3.10;;
20739;SDS011;10530;49.968;19.844;2024-02-15T14:29:11;11.70;;;3.50;;
20739;SDS011;10530;49.968;19.844;2024-02-15T14:34:16;10.00;;;3.33;;
20739;SDS011;10530;49.968;19.844;2024-02-15T14:39:20;7.47;;;3.45;;
20739;SDS011;10530;49.968;19.844;2024-02-15T14:44:23;6.93;;;3.30;;
20739;SDS011;10530;49.968;19.844;2024-02-15T14:49:27;8.30;;;3.50;;
20739;SDS011;10530;49.968;19.844;2024-02-15T14:54:29;7.77;;;3.20;;
20739;SDS011;10530;49.968;19.844;2024-02-15T14:59:33;10.13;;;3.67;;
20739;SDS011;10530;49.968;19.844;2024-02-15T15:04:36;9.13;;;4.07;;
20739;SDS011;10530;49.968;19.844;2024-02-15T15:09:58;8.80;;;3.80;;
20739;SDS011;10530;49.968;19.844;2024-02-15T15:15:19;9.15;;;3.33;;
20739;SDS011;10530;49.968;19.844;2024-02-15T15:20:22;9.13;;;3.40;;
20739;SDS011;10530;49.968;19.844;2024-02-15T15:25:27;10.10;;;3.70;;
20739;SDS011;10530;49.968;19.844;2024-02-15T15:30:30;13.40;;;3.88;;
20739;SDS011;10530;49.968;19.844;2024-02-15T15:35:33;15.87;;;4.00;;
20739;SDS011;10530;49.968;19.844;2024-02-15T15:40:37;13.57;;;4.90;;
20739;SDS011;10530;49.968;19.844;2024-02-15T15:45:40;14.07;;;4.00;;
20739;SDS011;10530;49.968;19.844;2024-02-15T15:50:44;16.20;;;5.40;;
20739;SDS011;10530;49.968;19.844;2024-02-15T15:55:47;18.02;;;7.38;;
20739;SDS011;10530;49.968;19.844;2024-02-15T16:00:50;34.77;;;11.83;;
20739;SDS011;10530;49.968;19.844;2024-02-15T16:05:53;14.88;;;6.25;;
20739;SDS011;10530;49.968;19.844;2024-02-15T16:10:57;14.97;;;5.67;;
20739;SDS011;10530;49.968;19.844;2024-02-15T16:16:00;16.85;;;6.65;;
20739;SDS011;10530;49.968;19.844;2024-02-15T16:21:06;23.65;;;8.98;;
20739;SDS011;10530;49.968;19.844;2024-02-15T16:26:09;18.97;;;7.83;;
20739;SDS011;10530;49.968;19.844;2024-02-15T16:31:12;17.17;;;5.85;;
20739;SDS011;10530;49.968;19.844;2024-02-15T16:36:15;12.23;;;5.13;;
20739;SDS011;10530;49.968;19.844;2024-02-15T16:41:19;16.45;;;6.10;;
20739;SDS011;10530;49.968;19.844;2024-02-15T16:46:23;16.75;;;6.18;;
20739;SDS011;10530;49.968;19.844;2024-02-15T16:51:26;14.40;;;6.60;;
20739;SDS011;10530;49.968;19.844;2024-02-15T16:56:29;21.10;;;8.07;;
20739;SDS011;10530;49.968;19.844;2024-02-15T17:01:32;24.90;;;9.07;;
20739;SDS011;10530;49.968;19.844;2024-02-15T17:06:40;17.90;;;7.28;;
20739;SDS011;10530;49.968;19.844;2024-02-15T17:11:43;19.92;;;8.73;;
20739;SDS011;10530;49.968;19.844;2024-02-15T17:16:48;19.83;;;7.93;;
20739;SDS011;10530;49.968;19.844;2024-02-15T17:21:52;18.05;;;8.38;;
20739;SDS011;10530;49.968;19.844;2024-02-15T17:26:56;18.47;;;7.67;;
20739;SDS011;10530;49.968;19.844;2024-02-15T17:31:59;19.23;;;7.55;;
20739;SDS011;10530;49.968;19.844;2024-02-15T17:37:02;18.50;;;7.47;;
20739;SDS011;10530;49.968;19.844;2024-02-15T17:42:05;25.37;;;8.67;;
20739;SDS011;10530;49.968;19.844;2024-02-15T17:47:08;23.75;;;8.93;;
20739;SDS011;10530;49.968;19.844;2024-02-15T17:52:12;21.37;;;9.30;;
20739;SDS011;10530;49.968;19.844;2024-02-15T17:57:15;25.90;;;9.63;;
20739;SDS011;10530;49.968;19.844;2024-02-15T18:02:18;22.42;;;9.55;;
20739;SDS011;10530;49.968;19.844;2024-02-15T18:07:21;22.73;;;9.73;;
20739;SDS011;10530;49.968;19.844;2024-02-15T18:12:24;23.10;;;10.00;;
20739;SDS011;10530;49.968;19.844;2024-02-15T18:17:29;22.93;;;8.40;;
20739;SDS011;10530;49.968;19.844;2024-02-15T18:22:32;24.70;;;9.57;;
20739;SDS011;10530;49.968;19.844;2024-02-15T18:27:35;24.85;;;9.27;;
20739;SDS011;10530;49.968;19.844;2024-02-15T18:32:39;21.13;;;9.10;;
20739;SDS011;10530;49.968;19.844;2024-02-15T18:37:42;24.35;;;9.45;;
20739;SDS011;10530;49.968;19.844;2024-02-15T18:42:45;27.53;;;9.97;;
20739;SDS011;10530;49.968;19.844;2024-02-15T18:47:50;24.38;;;9.90;;
20739;SDS011;10530;49.968;19.844;2024-02-15T18:52:55;21.15;;;10.20;;
20739;SDS011;10530;49.968;19.844;2024-02-15T18:57:59;24.60;;;10.13;;
20739;SDS011;10530;49.968;19.844;2024-02-15T19:03:03;24.42;;;10.63;;
20739;SDS011;10530;49.968;19.844;2024-02-15T19:08:06;24.07;;;10.37;;
20739;SDS011;10530;49.968;19.844;2024-02-15T19:13:09;29.67;;;10.63;;
20739;SDS011;10530;49.968;19.844;2024-02-15T19:18:12;31.13;;;12.48;;
20739;SDS011;10530;49.968;19.844;2024-02-15T19:23:16;33.27;;;12.57;;
20739;SDS011;10530;49.968;19.844;2024-02-15T19:28:19;25.00;;;11.38;;
20739;SDS011;10530;49.968;19.844;2024-02-15T19:33:22;26.93;;;12.00;;
20739;SDS011;10530;49.968;19.844;2024-02-15T19:38:26;23.92;;;10.07;;
20739;SDS011;10530;49.968;19.844;2024-02-15T19:43:30;27.08;;;9.77;;
20739;SDS011;10530;49.968;19.844;2024-02-15T19:48:33;30.13;;;10.07;;
20739;SDS011;10530;49.968;19.844;2024-02-15T19:53:37;30.27;;;11.55;;
20739;SDS011;10530;49.968;19.844;2024-02-15T19:58:42;25.90;;;11.00;;
20739;SDS011;10530;49.968;19.844;2024-02-15T20:03:45;28.45;;;9.50;;
20739;SDS011;10530;49.968;19.844;2024-02-15T20:08:52;34.80;;;13.10;;
20739;SDS011;10530;49.968;19.844;2024-02-15T20:13:55;35.30;;;14.07;;
20739;SDS011;10530;49.968;19.844;2024-02-15T20:18:59;33.88;;;13.80;;
20739;SDS011;10530;49.968;19.844;2024-02-15T20:24:05;40.87;;;14.23;;
20739;SDS011;10530;49.968;19.844;2024-02-15T20:29:09;37.15;;;14.77;;
20739;SDS011;10530;49.968;19.844;2024-02-15T20:34:13;45.42;;;15.88;;
20739;SDS011;10530;49.968;19.844;2024-02-15T20:39:16;53.93;;;18.73;;
20739;SDS011;10530;49.968;19.844;2024-02-15T20:44:20;42.42;;;16.50;;
20739;SDS011;10530;49.968;19.844;2024-02-15T20:49:24;41.37;;;16.47;;
20739;SDS011;10530;49.968;19.844;2024-02-15T20:54:28;45.42;;;17.50;;
20739;SDS011;10530;49.968;19.844;2024-02-15T20:59:31;39.40;;;17.75;;
20739;SDS011;10530;49.968;19.844;2024-02-15T21:04:35;39.30;;;15.90;;
20739;SDS011;10530;49.968;19.844;2024-02-15T21:09:38;37.47;;;15.13;;
20739;SDS011;10530;49.968;19.844;2024-02-15T21:14:41;32.93;;;13.90;;
20739;SDS011;10530;49.968;19.844;2024-02-15T21:19:45;35.20;;;12.45;;
20739;SDS011;10530;49.968;19.844;2024-02-15T21:24:47;23.88;;;9.55;;
20739;SDS011;10530;49.968;19.844;2024-02-15T21:29:50;22.67;;;8.13;;
20739;SDS011;10530;49.968;19.844;2024-02-15T21:34:54;20.95;;;8.68;;
20739;SDS011;10530;49.968;19.844;2024-02-15T21:39:58;19.33;;;7.60;;
20739;SDS011;10530;49.968;19.844;2024-02-15T21:45:01;18.08;;;7.03;;
20739;SDS011;10530;49.968;19.844;2024-02-15T21:50:08;13.63;;;5.72;;
20739;SDS011;10530;49.968;19.844;2024-02-15T21:55:11;17.40;;;6.80;;
20739;SDS011;10530;49.968;19.844;2024-02-15T22:12:50;17.13;;;7.10;;
20739;SDS011;10530;49.968;19.844;2024-02-15T22:17:54;17.85;;;7.10;;
20739;SDS011;10530;49.968;19.844;2024-02-15T22:22:58;16.57;;;6.40;;
20739;SDS011;10530;49.968;19.844;2024-02-15T22:28:02;16.65;;;6.03;;
20739;SDS011;10530;49.968;19.844;2024-02-15T22:33:05;15.27;;;6.20;;
20739;SDS011;10530;49.968;19.844;2024-02-15T22:38:09;16.33;;;7.03;;
20739;SDS011;10530;49.968;19.844;2024-02-15T22:43:12;21.15;;;6.97;;
20739;SDS011;10530;49.968;19.844;2024-02-15T22:48:15;17.20;;;6.73;;
20739;SDS011;10530;49.968;19.844;2024-02-15T22:53:19;17.05;;;6.95;;
20739;SDS011;10530;49.968;19.844;2024-02-15T22:58:24;15.60;;;6.47;;
20739;SDS011;10530;49.968;19.844;2024-02-15T23:03:28;18.58;;;7.78;;
20739;SDS011;10530;49.968;19.844;2024-02-15T23:08:31;18.52;;;7.78;;
20739;SDS011;10530;49.968;19.844;2024-02-15T23:13:37;18.03;;;7.43;;
20739;SDS011;10530;49.968;19.844;2024-02-15T23:18:41;16.58;;;7.03;;
20739;SDS011;10530;49.968;19.844;2024-02-15T23:23:44;18.47;;;6.93;;
20739;SDS011;10530;49.968;19.844;2024-02-15T23:28:48;17.92;;;8.25;;
20739;SDS011;10530;49.968;19.844;2024-02-15T23:33:51;21.13;;;8.50;;
20739;SDS011;10530;49.968;19.844;2024-02-15T23:38:55;21.63;;;8.83;;
20739;SDS011;10530;49.968;19.844;2024-02-15T23:44:17;29.38;;;11.73;;
20739;SDS011;10530;49.968;19.844;2024-02-15T23:49:20;31.07;;;13.63;;
20739;SDS011;10530;49.968;19.844;2024-02-15T23:54:24;28.15;;;11.75;;
20739;SDS011;10530;49.968;19.844;2024-02-15T23:59:27;30.85;;;12.63;;
